Time;durP1;ratioP1;P1;durP2;ratioP2;P2;SDS_P1;SDS_P2;PMS_P1;PMS_P2;Temp;Humidity;BMP_temperature;BMP_pressure;BME280_temperature;BME280_humidity;BME280_pressure;Samples;Min_cycle;Max_cycle;Signal;HPM_P1;HPM_P2
2023/01/15 00:00:17;;;;;;;5.60;5.05;;;;;;;-20.56;68.91;101207.06;4931670;28;20051;-49
2023/01/15 00:02:49;;;;;;;5.35;4.85;;;;;;;-20.53;69.07;101199.94;4930786;28;20501;-48
2023/01/15 00:05:20;;;;;;;8.35;5.22;;;;;;;-20.33;69.38;101186.50;4930073;28;20294;-46
2023/01/15 00:07:51;;;;;;;5.45;4.95;;;;;;;-20.08;69.55;101186.22;4932237;28;20075;-48
2023/01/15 00:10:22;;;;;;;4.75;4.35;;;;;;;-19.81;69.72;101185.22;4938527;28;20064;-49
2023/01/15 00:12:52;;;;;;;6.65;4.32;;;;;;;-19.23;70.34;101204.41;4940897;28;20695;-54
2023/01/15 00:15:22;;;;;;;5.40;4.53;;;;;;;-18.83;70.43;101206.47;4939398;28;20437;-52
2023/01/15 00:18:17;;;;;;;5.10;4.20;;;;;;;-18.56;70.09;101200.34;4947556;28;20111;-52
2023/01/15 00:20:48;;;;;;;257.33;56.22;;;;;;;-18.32;69.56;101208.09;4926705;28;20047;-53
2023/01/15 00:28:50;;;;;;;52.83;15.20;;;;;;;-17.41;68.94;101215.53;4929241;28;20079;-52
2023/01/15 00:31:20;;;;;;;55.97;16.23;;;;;;;-17.20;68.68;101226.94;4940064;28;20055;-52
2023/01/15 00:33:53;;;;;;;84.80;25.42;;;;;;;-17.24;68.05;101209.88;4940712;28;20048;-54
2023/01/15 00:36:24;;;;;;;64.15;19.38;;;;;;;-17.05;67.61;101223.59;4945988;27;20657;-53
2023/01/15 00:38:55;;;;;;;107.63;29.90;;;;;;;-16.89;67.14;101210.28;4943067;28;20502;-54
2023/01/15 00:41:25;;;;;;;101.38;30.05;;;;;;;-16.78;66.46;101202.28;4937525;28;20055;-52
2023/01/15 00:43:56;;;;;;;86.15;28.77;;;;;;;-16.68;65.84;101212.50;4938491;28;20055;-53
2023/01/15 00:46:26;;;;;;;57.95;20.60;;;;;;;-16.55;65.39;101210.56;4939498;28;20047;-55
2023/01/15 00:48:59;;;;;;;38.67;12.80;;;;;;;-16.31;65.32;101216.38;4939152;28;20059;-53
2023/01/15 00:51:29;;;;;;;13.50;7.00;;;;;;;-16.00;65.20;101209.56;4940373;28;20460;-55
2023/01/15 00:54:00;;;;;;;15.68;6.93;;;;;;;-15.89;64.50;101199.06;4940070;28;20047;-55
2023/01/15 00:56:33;;;;;;;19.70;8.20;;;;;;;-15.59;64.11;101221.31;4937386;28;20465;-57
2023/01/15 00:59:07;;;;;;;30.40;11.95;;;;;;;-15.50;64.24;101171.22;4922274;28;21077;-54
2023/01/15 01:01:39;;;;;;;56.92;19.20;;;;;;;-15.04;63.98;101210.94;4937237;28;20059;-55
2023/01/15 01:04:13;;;;;;;66.00;22.48;;;;;;;-14.90;63.22;101199.78;4936729;27;20124;-55
2023/01/15 01:06:45;;;;;;;55.85;18.73;;;;;;;-14.86;62.24;101187.69;4929053;28;20055;-55
2023/01/15 01:09:18;;;;;;;25.17;10.65;;;;;;;-14.86;61.68;101187.69;4937975;28;20067;-54
2023/01/15 01:11:51;;;;;;;27.75;12.63;;;;;;;-14.63;61.43;101186.56;4938686;28;20051;-54
2023/01/15 01:14:23;;;;;;;31.13;13.25;;;;;;;-14.39;61.33;101173.84;4937050;28;20052;-56
2023/01/15 01:16:54;;;;;;;24.95;9.63;;;;;;;-14.17;61.93;101171.78;4945314;27;20058;-55
2023/01/15 01:19:27;;;;;;;27.45;11.82;;;;;;;-14.02;61.27;101167.34;4930550;27;20059;-55
2023/01/15 01:21:57;;;;;;;23.08;10.82;;;;;;;-13.98;60.29;101174.41;4930183;28;20040;-56
2023/01/15 01:24:28;;;;;;;17.40;8.55;;;;;;;-13.91;60.31;101156.69;4960211;28;20063;-56
2023/01/15 01:26:59;;;;;;;16.88;7.93;;;;;;;-13.63;60.19;101169.31;4925017;28;20067;-56
2023/01/15 01:29:41;;;;;;;;;;;;;;;;;;;;;
2023/01/15 01:32:12;;;;;;;23.23;11.25;;;;;;;-13.62;58.93;101151.00;4884106;28;20067;-56
2023/01/15 01:34:47;;;;;;;24.30;10.98;;;;;;;-13.59;58.66;101152.91;4936920;28;20142;-57
2023/01/15 01:37:18;;;;;;;23.88;11.05;;;;;;;-13.51;58.85;101150.38;4939557;28;20062;-57
2023/01/15 01:39:48;;;;;;;12.82;6.22;;;;;;;-13.30;59.35;101145.59;4941352;28;20049;-57
2023/01/15 01:42:19;;;;;;;10.50;5.68;;;;;;;-13.25;58.50;101139.31;4939133;27;20051;-57
2023/01/15 01:45:09;;;;;;;25.63;9.00;;;;;;;-13.58;57.84;101097.75;4941366;27;20052;-57
2023/01/15 01:47:40;;;;;;;8.48;4.97;;;;;;;-13.48;57.26;101134.69;4926087;27;20067;-57
2023/01/15 01:50:14;;;;;;;13.50;6.00;;;;;;;-13.50;57.21;101132.03;4937563;28;20051;-57
2023/01/15 01:52:49;;;;;;;20.90;7.85;;;;;;;-13.62;57.19;101128.38;4926829;28;20052;-57
2023/01/15 01:55:22;;;;;;;17.58;7.32;;;;;;;-13.72;57.60;101123.25;4936613;28;20130;-57
2023/01/15 01:57:56;;;;;;;7.15;4.03;;;;;;;-13.83;58.13;101121.34;4931616;28;20046;-56
2023/01/15 02:00:32;;;;;;;6.18;3.30;;;;;;;-14.18;59.00;101063.66;4936826;27;20108;-57
2023/01/15 02:03:06;;;;;;;4.55;2.90;;;;;;;-14.01;58.31;101113.84;4937366;28;20087;-57
2023/01/15 02:05:40;;;;;;;5.03;3.30;;;;;;;-14.14;58.49;101105.91;4926493;28;20047;-57
2023/01/15 02:08:11;;;;;;;6.07;3.47;;;;;;;-14.19;58.35;101107.97;4938525;28;20055;-57
2023/01/15 02:10:41;;;;;;;9.57;3.78;;;;;;;-14.32;58.07;101079.03;4937748;28;20055;-57
2023/01/15 02:13:19;;;;;;;4.88;3.20;;;;;;;-14.23;58.34;101095.88;4938089;28;20055;-57
2023/01/15 02:15:55;;;;;;;8.80;3.90;;;;;;;-14.03;58.57;101102.78;4927099;28;20142;-57
2023/01/15 02:18:35;;;;;;;5.93;3.15;;;;;;;-14.18;58.48;101084.63;4932604;28;20055;-56
2023/01/15 02:21:17;;;;;;;7.43;3.33;;;;;;;-14.14;58.35;101105.91;4927916;27;20047;-57
2023/01/15 02:24:10;;;;;;;4.40;3.45;;;;;;;-14.05;57.81;101100.84;4928618;27;20048;-56
2023/01/15 02:27:02;;;;;;;9.95;5.00;;;;;;;-14.38;57.79;101050.09;4926724;28;20052;-57
2023/01/15 02:29:41;;;;;;;7.88;4.60;;;;;;;-14.12;58.17;101084.34;4923627;28;20049;-56
2023/01/15 02:32:19;;;;;;;4.40;3.08;;;;;;;-14.19;57.92;101071.94;4933485;27;20532;-56
2023/01/15 02:34:56;;;;;;;7.03;3.47;;;;;;;-14.28;58.10;101066.06;4929758;28;20057;-56
2023/01/15 02:37:34;;;;;;;4.00;3.53;;;;;;;-14.70;58.09;101028.63;4929776;28;20062;-56
2023/01/15 02:40:07;;;;;;;5.90;3.65;;;;;;;-14.65;58.70;101047.50;4927024;27;20056;-56
2023/01/15 02:42:42;;;;;;;4.57;3.40;;;;;;;-14.66;59.05;101038.22;4937847;28;20049;-56
2023/01/15 02:45:16;;;;;;;7.07;4.28;;;;;;;-14.57;59.31;101051.66;4935074;28;20069;-56
2023/01/15 02:47:48;;;;;;;7.70;4.13;;;;;;;-14.41;59.31;101039.78;4926574;27;20078;-56
2023/01/15 02:50:24;;;;;;;4.70;3.38;;;;;;;-14.22;59.75;101026.47;4937201;28;20122;-58
2023/01/15 02:53:02;;;;;;;5.28;3.50;;;;;;;-14.13;58.93;101029.81;4926465;28;20056;-54
2023/01/15 02:55:38;;;;;;;4.55;2.80;;;;;;;-14.40;59.43;100966.28;4933209;28;20054;-56
2023/01/15 02:58:15;;;;;;;4.10;3.00;;;;;;;-14.72;59.22;100904.66;4933821;28;20055;-56
2023/01/15 03:00:48;;;;;;;5.53;3.13;;;;;;;-14.14;58.75;101030.56;4923851;28;20047;-55
2023/01/15 03:03:26;;;;;;;3.33;2.97;;;;;;;-14.19;58.75;101032.66;4927205;28;20051;-56
2023/01/15 03:06:04;;;;;;;7.72;3.60;;;;;;;-14.10;59.00;101027.63;4923519;28;20187;-56
2023/01/15 03:08:35;;;;;;;4.03;3.47;;;;;;;-13.97;59.10;101024.63;4924849;28;20079;-56
2023/01/15 03:11:12;;;;;;;4.47;3.30;;;;;;;-13.89;59.78;101017.78;4938696;28;20043;-56
2023/01/15 03:13:50;;;;;;;4.30;3.15;;;;;;;-13.91;59.17;101005.97;4934097;27;20187;-56
2023/01/15 03:16:35;;;;;;;8.23;3.30;;;;;;;-13.99;59.04;100981.75;4940849;28;20059;-56
2023/01/15 03:19:13;;;;;;;3.13;2.83;;;;;;;-13.72;59.44;101008.53;4932269;28;20173;-56
2023/01/15 03:21:50;;;;;;;5.22;2.30;;;;;;;-13.88;58.49;100999.44;4934826;28;20057;-55
2023/01/15 03:24:27;;;;;;;4.32;2.85;;;;;;;-13.80;58.44;101001.03;4939553;28;20044;-56
2023/01/15 03:26:58;;;;;;;5.45;3.05;;;;;;;-13.89;58.50;100988.53;4930709;27;20051;-56
2023/01/15 03:29:35;;;;;;;6.88;2.92;;;;;;;-14.11;59.49;100945.47;4941471;28;20132;-56
2023/01/15 03:32:06;;;;;;;3.50;2.78;;;;;;;-13.83;59.48;100973.13;4932768;28;20564;-56
2023/01/15 03:34:42;;;;;;;5.25;3.10;;;;;;;-14.03;58.69;100939.53;4942806;27;20051;-56
2023/01/15 03:37:14;;;;;;;5.32;3.30;;;;;;;-13.81;57.96;100972.50;4937407;28;20069;-56
2023/01/15 03:39:45;;;;;;;3.40;2.65;;;;;;;-14.10;57.71;100932.19;4940250;27;20055;-56
2023/01/15 03:42:30;;;;;;;6.90;3.42;;;;;;;-13.96;57.56;100956.94;4939871;27;20047;-55
2023/01/15 03:45:07;;;;;;;7.40;3.30;;;;;;;-14.02;57.77;100956.38;4929175;27;20492;-56
2023/01/15 03:47:49;;;;;;;4.50;3.30;;;;;;;-13.98;57.95;100955.91;4928748;28;20067;-56
2023/01/15 03:50:28;;;;;;;4.05;3.00;;;;;;;-13.88;57.57;100945.06;4928651;28;20052;-56
2023/01/15 03:53:07;;;;;;;7.68;3.63;;;;;;;-13.82;57.53;100944.75;4928448;28;20051;-56
2023/01/15 03:55:44;;;;;;;6.65;3.33;;;;;;;-13.99;58.02;100916.47;4927702;27;20496;-56
2023/01/15 03:58:20;;;;;;;14.18;3.90;;;;;;;-13.56;58.08;100945.47;4928496;28;20056;-57
2023/01/15 04:00:57;;;;;;;5.78;3.50;;;;;;;-14.02;57.77;100862.56;4938720;28;20103;-56
2023/01/15 04:03:30;;;;;;;5.40;3.72;;;;;;;-13.77;57.10;100894.19;4929952;28;20416;-56
2023/01/15 04:06:03;;;;;;;6.28;3.60;;;;;;;-13.47;57.38;100926.19;4918395;28;20577;-57
2023/01/15 04:08:39;;;;;;;5.60;3.75;;;;;;;-13.28;56.90;100938.78;4930881;28;20372;-56
2023/01/15 04:11:10;;;;;;;8.02;4.18;;;;;;;-13.26;56.73;100934.72;4939690;28;20143;-56
2023/01/15 04:13:41;;;;;;;8.18;3.67;;;;;;;-13.14;57.15;100931.53;4939674;27;20052;-57
2023/01/15 04:16:14;;;;;;;7.65;4.03;;;;;;;-12.96;57.44;100922.19;4939648;28;20055;-56
2023/01/15 04:18:44;;;;;;;8.63;3.83;;;;;;;-12.82;56.81;100926.78;4933331;28;20055;-56
2023/01/15 04:21:15;;;;;;;5.93;3.83;;;;;;;-12.79;55.97;100917.00;4940993;27;20062;-57
2023/01/15 04:23:45;;;;;;;8.27;3.90;;;;;;;-12.82;55.56;100902.50;4939226;28;20432;-57
2023/01/15 04:26:17;;;;;;;6.60;3.88;;;;;;;-12.77;54.54;100912.97;4940198;28;20681;-56
2023/01/15 04:28:47;;;;;;;6.57;3.75;;;;;;;-12.69;54.04;100912.00;4941045;27;20059;-56
2023/01/15 04:31:20;;;;;;;7.50;5.28;;;;;;;-12.60;54.73;100910.28;4941275;28;20055;-57
2023/01/15 04:33:50;;;;;;;11.52;4.60;;;;;;;-12.46;55.04;100908.03;4929295;28;20052;-57
2023/01/15 04:36:21;;;;;;;7.55;4.32;;;;;;;-12.44;54.63;100907.41;4934943;28;20101;-57
2023/01/15 04:38:53;;;;;;;8.43;4.03;;;;;;;-12.58;53.00;100896.94;4936747;28;20059;-57
2023/01/15 04:44:11;;;;;;;6.80;3.92;;;;;;;-12.68;52.57;100886.09;4916553;27;20052;-57
2023/01/15 04:46:45;;;;;;;8.52;4.03;;;;;;;-12.66;53.47;100869.47;4938616;27;20055;-57
2023/01/15 04:49:17;;;;;;;7.78;4.10;;;;;;;-12.49;52.36;100888.53;4927746;28;20085;-57
2023/01/15 04:51:48;;;;;;;7.88;4.05;;;;;;;-12.48;53.35;100895.34;4937744;28;20040;-57
2023/01/15 04:54:19;;;;;;;7.10;4.05;;;;;;;-12.43;52.74;100883.13;4938626;28;20044;-57
2023/01/15 04:56:52;;;;;;;5.95;3.63;;;;;;;-12.61;52.13;100873.25;4938644;28;20687;-57
2023/01/15 04:59:23;;;;;;;7.65;3.70;;;;;;;-12.43;52.73;100893.19;4939045;28;20133;-57
2023/01/15 05:01:56;;;;;;;4.88;3.30;;;;;;;-12.33;52.71;100885.66;4931928;27;20053;-57
2023/01/15 05:04:33;;;;;;;;;;;;;;;-12.16;51.64;100882.91;4931461;27;20982;-57
2023/01/15 05:07:05;;;;;;;5.65;2.85;;;;;;;-12.14;51.41;100879.66;4942443;28;19933;-57
2023/01/15 05:09:36;;;;;;;6.10;3.83;;;;;;;-12.03;51.29;100881.41;4937967;28;20048;-57
2023/01/15 05:12:10;;;;;;;4.68;2.80;;;;;;;-12.00;51.97;100874.13;4938343;28;20055;-57
2023/01/15 05:14:42;;;;;;;7.07;3.65;;;;;;;-11.87;52.92;100879.41;4940513;28;20086;-57
2023/01/15 05:17:14;;;;;;;6.35;3.53;;;;;;;-11.86;52.34;100865.19;4939686;28;20896;-57
2023/01/15 05:19:48;;;;;;;5.57;3.60;;;;;;;-11.85;52.05;100867.81;4941833;28;20057;-57
2023/01/15 05:22:30;;;;;;;6.13;3.22;;;;;;;-11.81;52.26;100864.75;4940129;28;20062;-57
2023/01/15 05:25:01;;;;;;;8.75;3.70;;;;;;;-11.73;53.01;100843.59;4930483;27;20043;-57
2023/01/15 05:27:32;;;;;;;5.47;3.22;;;;;;;-11.80;52.55;100851.41;4940680;28;20059;-57
2023/01/15 05:30:03;;;;;;;5.72;3.30;;;;;;;-11.80;52.58;100861.50;4931479;28;20045;-57
2023/01/15 05:32:35;;;;;;;6.55;3.30;;;;;;;-11.84;52.19;100854.44;4943098;28;21839;-57
2023/01/15 05:35:06;;;;;;;5.93;3.05;;;;;;;-11.86;52.18;100850.06;4937314;28;20047;-57
2023/01/15 05:37:37;;;;;;;5.50;3.08;;;;;;;-11.91;51.88;100851.31;4938771;27;20429;-57
2023/01/15 05:40:09;;;;;;;4.15;2.90;;;;;;;-12.03;50.91;100851.19;4938051;27;20055;-57
2023/01/15 05:42:39;;;;;;;7.30;3.58;;;;;;;-12.06;50.96;100853.47;4938005;28;20066;-57
2023/01/15 05:45:11;;;;;;;5.47;3.03;;;;;;;-12.12;51.06;100840.38;4937261;28;20057;-57
2023/01/15 05:47:43;;;;;;;7.10;3.53;;;;;;;-12.05;51.31;100852.72;4936952;28;20063;-56
2023/01/15 05:50:13;;;;;;;7.00;3.50;;;;;;;-12.03;51.96;100851.19;4932581;28;20044;-57
2023/01/15 05:52:44;;;;;;;4.68;2.80;;;;;;;-12.34;51.16;100822.59;4940818;28;20049;-57
2023/01/15 05:55:15;;;;;;;4.50;3.22;;;;;;;-12.26;50.72;100851.81;4934837;28;20050;-57
2023/01/15 05:57:45;;;;;;;8.63;4.63;;;;;;;-12.34;50.71;100848.66;4936728;28;20052;-57
2023/01/15 06:00:17;;;;;;;7.05;3.50;;;;;;;-12.35;50.87;100849.41;4936904;28;20116;-57
2023/01/15 06:02:51;;;;;;;4.60;3.30;;;;;;;-12.45;50.89;100830.13;4933713;28;20057;-56
2023/01/15 06:05:22;;;;;;;5.20;3.05;;;;;;;-12.45;50.81;100831.78;4937674;28;20489;-56
2023/01/15 06:07:53;;;;;;;5.18;2.88;;;;;;;-12.48;51.31;100836.53;4934478;28;20057;-57
2023/01/15 06:10:23;;;;;;;5.53;3.22;;;;;;;-12.53;51.34;100845.31;4932862;28;20156;-57
2023/01/15 06:12:54;;;;;;;6.78;3.05;;;;;;;-12.62;50.80;100843.81;4941992;28;20053;-57
2023/01/15 06:15:24;;;;;;;10.35;4.18;;;;;;;-12.69;51.06;100849.06;4937746;27;20124;-57
2023/01/15 06:17:56;;;;;;;6.72;3.25;;;;;;;-12.72;51.37;100846.31;4938411;28;20074;-56
2023/01/15 06:20:27;;;;;;;6.93;4.03;;;;;;;-13.01;51.88;100813.63;4935012;28;20061;-57
2023/01/15 06:22:58;;;;;;;9.27;3.88;;;;;;;-12.95;51.88;100845.94;4940265;28;20604;-58
2023/01/15 06:25:28;;;;;;;12.55;4.32;;;;;;;-13.12;52.40;100830.31;4939751;28;20047;-58
2023/01/15 06:27:59;;;;;;;12.52;4.25;;;;;;;-13.09;52.22;100844.78;4936568;28;20468;-58
2023/01/15 06:30:30;;;;;;;7.78;4.47;;;;;;;-13.09;52.76;100863.25;4936805;28;20047;-57
2023/01/15 06:33:02;;;;;;;13.50;3.78;;;;;;;-13.19;53.06;100852.28;4936157;28;20112;-57
2023/01/15 06:35:32;;;;;;;9.98;4.47;;;;;;;-13.29;53.01;100850.63;4935734;27;21079;-56
2023/01/15 06:38:03;;;;;;;41.03;12.02;;;;;;;-13.27;53.92;100859.19;4945294;27;20065;-58
2023/01/15 06:40:33;;;;;;;261.42;63.38;;;;;;;-13.30;54.39;100858.94;4941729;28;20675;-57
2023/01/15 06:48:53;;;;;;;263.77;59.15;;;;;;;-14.59;54.68;100872.47;4868547;28;20055;-56
2023/01/15 06:51:23;;;;;;;433.45;114.55;;;;;;;-15.40;56.00;100863.19;4925285;28;20144;-57
2023/01/15 06:53:54;;;;;;;276.83;75.45;;;;;;;-15.73;57.28;100885.94;4942128;28;20061;-56
2023/01/15 06:56:24;;;;;;;46.42;19.08;;;;;;;-16.11;58.47;100898.97;4943240;28;20057;-54
2023/01/15 06:58:55;;;;;;;24.13;12.57;;;;;;;-16.47;59.61;100895.31;4941633;28;20055;-55
2023/01/15 07:01:29;;;;;;;9.82;7.05;;;;;;;-16.83;61.05;100888.41;4942173;28;20047;-54
2023/01/15 07:04:01;;;;;;;12.43;8.40;;;;;;;-17.03;61.76;100902.25;4941185;28;20059;-56
2023/01/15 07:06:33;;;;;;;11.00;6.15;;;;;;;-17.19;62.83;100893.94;4941898;28;20052;-53
2023/01/15 07:09:03;;;;;;;19.33;8.93;;;;;;;-17.54;63.75;100900.25;4936580;28;20061;-54
2023/01/15 07:11:34;;;;;;;43.90;18.45;;;;;;;-18.41;64.68;100808.06;4944921;28;20057;-54
2023/01/15 07:14:07;;;;;;;154.30;59.30;;;;;;;-18.11;65.53;100904.34;4942330;28;20051;-55
2023/01/15 07:16:37;;;;;;;90.70;44.30;;;;;;;-18.21;66.00;100901.59;4941335;28;20067;-54
2023/01/15 07:19:10;;;;;;;77.90;32.63;;;;;;;-18.25;66.79;100894.50;4935193;28;20043;-54
2023/01/15 07:21:40;;;;;;;27.98;15.13;;;;;;;-18.38;67.86;100898.16;4936797;28;20135;-53
2023/01/15 07:24:11;;;;;;;36.80;17.10;;;;;;;-18.41;68.67;100891.97;4940073;28;20146;-54
2023/01/15 07:26:42;;;;;;;12.25;7.90;;;;;;;-18.40;69.37;100894.59;4941169;27;20097;-53
2023/01/15 07:29:15;;;;;;;27.27;13.35;;;;;;;-18.31;70.04;100890.63;4939419;28;20058;-53
2023/01/15 07:31:48;;;;;;;18.77;8.45;;;;;;;-18.34;70.08;100890.31;4939421;28;20051;-53
2023/01/15 07:34:21;;;;;;;9.52;6.10;;;;;;;-18.28;70.32;100890.94;4938976;28;20490;-53
2023/01/15 07:36:51;;;;;;;7.20;5.88;;;;;;;-18.18;70.41;100889.44;4938730;28;20063;-53
2023/01/15 07:39:22;;;;;;;13.02;7.50;;;;;;;-18.10;70.35;100886.13;4939858;28;20092;-53
2023/01/15 07:50:22;;;;;;;10.98;7.07;;;;;;;-17.55;70.22;100891.88;4931813;28;20054;-54
2023/01/15 07:52:53;;;;;;;10.93;6.15;;;;;;;-17.34;70.27;100887.34;4937063;28;20065;-54
2023/01/15 07:55:24;;;;;;;8.10;5.30;;;;;;;-17.20;70.02;100893.03;4947488;28;20053;-52
2023/01/15 07:57:54;;;;;;;11.27;5.38;;;;;;;-17.09;69.78;100885.78;4938501;27;20047;-52
2023/01/15 08:00:28;;;;;;;18.02;7.07;;;;;;;-17.05;69.49;100886.22;4940731;27;20157;-54
2023/01/15 08:02:59;;;;;;;52.30;13.43;;;;;;;-17.04;69.21;100882.13;4941244;28;20185;-53
2023/01/15 08:05:31;;;;;;;64.03;17.88;;;;;;;-17.13;69.02;100889.56;4943604;28;20101;-54
2023/01/15 08:08:01;;;;;;;18.42;8.20;;;;;;;-17.33;68.67;100886.63;4940010;28;20062;-54
2023/01/15 08:15:11;;;;;;;15.25;7.50;;;;;;;-17.53;68.99;100900.44;4937872;27;20059;-55
2023/01/15 08:16:43;;;;;;;16.33;7.30;;;;;;;-17.90;70.02;100881.63;4935446;27;20052;-51
2023/01/15 08:19:18;;;;;;;20.83;8.70;;;;;;;-17.93;70.07;100886.31;4918924;27;20058;-54
2023/01/15 08:21:53;;;;;;;9.38;5.38;;;;;;;-17.85;70.38;100890.47;4932764;28;20504;-55
2023/01/15 08:24:24;;;;;;;14.70;7.75;;;;;;;-17.78;70.21;100891.13;4931694;28;21287;-55
2023/01/15 08:27:32;;;;;;;21.77;9.63;;;;;;;-17.63;70.52;100888.59;4939542;27;20409;-54
2023/01/15 08:30:36;;;;;;;27.23;12.00;;;;;;;-17.40;70.65;100876.00;4913015;27;20041;-52
2023/01/15 08:33:16;;;;;;;10.38;6.30;;;;;;;-17.03;70.82;100877.28;4916861;28;20289;-61
2023/01/15 08:35:48;;;;;;;8.80;5.68;;;;;;;-16.92;70.44;100874.97;4939241;28;20047;-60
2023/01/15 08:38:22;;;;;;;7.25;4.68;;;;;;;-16.82;70.21;100877.66;4939683;28;20419;-59
2023/01/15 08:41:02;;;;;;;13.05;6.07;;;;;;;-16.80;70.18;100886.22;4948750;28;20058;-58
2023/01/15 08:43:33;;;;;;;17.85;7.45;;;;;;;-16.87;69.32;100871.31;4937952;28;20942;-60
2023/01/15 08:46:08;;;;;;;10.73;5.65;;;;;;;-17.03;68.23;100867.28;4941214;28;20499;-59
2023/01/15 08:48:41;;;;;;;13.35;6.25;;;;;;;-17.21;67.46;100880.41;4940285;27;20557;-59
2023/01/15 08:51:13;;;;;;;10.93;5.75;;;;;;;-17.23;67.58;100882.72;4939511;28;20055;-59
2023/01/15 08:53:45;;;;;;;12.43;7.15;;;;;;;-17.16;67.85;100879.25;4936034;28;20057;-59
2023/01/15 08:56:16;;;;;;;15.48;7.07;;;;;;;-17.15;67.74;100881.00;4950389;28;20502;-59
2023/01/15 08:58:48;;;;;;;22.92;9.18;;;;;;;-17.10;67.72;100879.88;4926134;28;20043;-59
2023/01/15 09:01:22;;;;;;;17.08;8.43;;;;;;;-16.99;68.06;100869.38;4938870;27;20074;-59
2023/01/15 09:03:53;;;;;;;21.05;8.63;;;;;;;-16.80;68.62;100873.72;4934653;28;20045;-60
2023/01/15 09:06:23;;;;;;;23.60;9.13;;;;;;;-16.71;68.82;100857.13;4944449;28;20064;-60
2023/01/15 09:12:16;;;;;;;23.00;9.38;;;;;;;-16.63;67.82;100866.25;4928213;27;20067;-59
2023/01/15 09:14:48;;;;;;;16.60;8.20;;;;;;;-16.53;67.34;100873.94;4937450;28;20480;-60
2023/01/15 09:17:32;;;;;;;10.80;6.03;;;;;;;-17.03;66.68;100782.31;4926637;28;20047;-60
2023/01/15 09:20:03;;;;;;;13.73;6.40;;;;;;;-16.48;66.21;100866.03;4937114;28;20063;-60
2023/01/15 09:22:35;;;;;;;19.42;8.60;;;;;;;-16.46;66.21;100874.59;4929827;27;20069;-59
2023/01/15 09:25:09;;;;;;;23.15;9.00;;;;;;;-16.47;66.44;100857.78;4937313;27;20067;-60
2023/01/15 09:27:40;;;;;;;17.95;8.50;;;;;;;-16.39;67.02;100861.97;4936367;28;20055;-60
2023/01/15 09:30:17;;;;;;;18.92;8.07;;;;;;;-16.44;67.10;100858.13;4936571;28;20048;-60
2023/01/15 09:32:49;;;;;;;23.25;9.15;;;;;;;-16.68;66.85;100811.53;4926545;28;20048;-60
2023/01/15 09:35:21;;;;;;;30.52;10.98;;;;;;;-16.46;66.73;100847.06;4938915;28;20374;-60
2023/01/15 09:37:53;;;;;;;27.10;10.10;;;;;;;-16.32;66.64;100856.84;4938648;28;20467;-60
2023/01/15 09:40:44;;;;;;;27.13;8.95;;;;;;;-16.43;66.78;100827.34;4929069;28;21181;-59
2023/01/15 09:43:29;;;;;;;26.75;9.70;;;;;;;-16.29;66.12;100857.13;4916890;28;20059;-59
2023/01/15 09:46:04;;;;;;;23.63;9.95;;;;;;;-16.53;65.64;100853.94;4927984;28;20436;-59
2023/01/15 09:48:54;;;;;;;20.42;8.30;;;;;;;-16.76;65.41;100851.66;4927191;28;20039;-59
2023/01/15 09:51:37;;;;;;;21.13;8.57;;;;;;;-16.83;65.63;100831.78;4928189;28;20135;-60
2023/01/15 09:54:22;;;;;;;20.75;8.55;;;;;;;-16.76;66.62;100844.16;4927927;28;20082;-60
2023/01/15 09:56:57;;;;;;;20.00;8.25;;;;;;;-16.69;67.00;100845.66;4927429;28;25444;-59
2023/01/15 09:59:35;;;;;;;19.80;9.13;;;;;;;-16.69;67.43;100855.66;4927073;28;20047;-60
2023/01/15 10:02:18;;;;;;;17.20;7.45;;;;;;;-17.01;67.14;100798.34;4927582;28;20655;-59
2023/01/15 10:04:55;;;;;;;29.23;12.55;;;;;;;-16.66;67.24;100840.97;4926716;28;20051;-59
2023/01/15 10:07:35;;;;;;;28.00;11.20;;;;;;;-16.69;67.35;100835.66;4928520;28;20039;-59
2023/01/15 10:10:12;;;;;;;29.10;11.02;;;;;;;-16.69;67.49;100845.66;4920445;28;20056;-59
2023/01/15 10:12:51;;;;;;;30.80;10.73;;;;;;;-16.65;67.99;100836.84;4922752;28;20096;-62
2023/01/15 10:15:37;;;;;;;24.42;8.63;;;;;;;-16.62;68.11;100828.03;4938043;28;20052;-59
2023/01/15 10:18:14;;;;;;;19.83;8.63;;;;;;;-16.86;68.20;100788.13;4926964;28;20150;-59
2023/01/15 10:21:07;;;;;;;20.08;8.40;;;;;;;-16.60;68.19;100826.56;4930505;28;20047;-58
2023/01/15 10:23:46;;;;;;;25.27;9.70;;;;;;;-16.52;68.65;100815.72;4931083;28;20078;-59
2023/01/15 10:26:26;;;;;;;10.40;6.03;;;;;;;-16.50;68.80;100818.34;4932146;28;20064;-59
2023/01/15 10:29:04;;;;;;;6.07;4.95;;;;;;;-16.74;68.90;100806.81;4932267;28;20252;-59
2023/01/15 10:31:50;;;;;;;7.80;5.10;;;;;;;-17.00;69.59;100797.59;4931096;28;20144;-58
2023/01/15 10:35:01;;;;;;;8.13;4.07;;;;;;;-17.08;70.40;100793.47;4925532;28;20974;-59
2023/01/15 10:37:40;;;;;;;4.93;3.63;;;;;;;-17.06;71.16;100792.00;4927013;28;20088;-59
2023/01/15 10:40:32;;;;;;;6.63;4.00;;;;;;;-17.03;71.38;100789.81;4931019;28;20048;-56
2023/01/15 10:43:12;;;;;;;4.68;3.78;;;;;;;-16.93;71.73;100788.25;4929767;28;20054;-58
2023/01/15 10:45:53;;;;;;;7.28;4.25;;;;;;;-16.90;71.98;100788.53;4938425;28;20065;-58
2023/01/15 10:48:33;;;;;;;5.80;3.97;;;;;;;-17.07;71.95;100780.25;4942958;28;20140;-58
2023/01/15 10:51:15;;;;;;;5.22;3.30;;;;;;;-16.93;72.79;100783.25;4925007;28;20159;-58
2023/01/15 10:53:51;;;;;;;4.07;3.40;;;;;;;-16.76;72.70;100785.78;4942644;28;20101;-58
2023/01/15 10:56:32;;;;;;;28.35;10.07;;;;;;;-16.78;72.61;100772.25;4931433;28;20445;-59
2023/01/15 10:59:17;;;;;;;31.95;12.57;;;;;;;-16.70;72.41;100788.88;4925605;28;20061;-59
2023/01/15 11:01:53;;;;;;;20.25;8.82;;;;;;;-16.64;72.42;100789.50;4929603;28;21309;-59
2023/01/15 11:04:26;;;;;;;10.02;5.45;;;;;;;-16.64;72.31;100779.47;4930946;28;20497;-58
2023/01/15 11:06:59;;;;;;;9.27;4.85;;;;;;;-16.90;71.65;100754.41;4942249;28;20067;-59
2023/01/15 11:09:33;;;;;;;10.27;4.25;;;;;;;-16.83;71.41;100780.91;4942345;28;20062;-58
2023/01/15 11:21:10;;;;;;;10.83;4.70;;;;;;;-17.19;70.02;100789.88;4923576;28;20053;-59
2023/01/15 11:23:42;;;;;;;12.30;5.97;;;;;;;-17.16;70.18;100798.44;4941136;28;20677;-59
2023/01/15 11:26:20;;;;;;;11.60;5.57;;;;;;;-17.20;70.19;100797.22;4937974;28;20061;-58
2023/01/15 11:28:54;;;;;;;10.45;5.10;;;;;;;-17.18;70.28;100795.75;4941364;28;20142;-59
2023/01/15 11:31:38;;;;;;;8.77;4.80;;;;;;;-17.22;70.26;100786.19;4930199;28;20069;-58
2023/01/15 11:34:21;;;;;;;8.15;4.80;;;;;;;-17.07;69.89;100802.75;4930443;28;20541;-59
2023/01/15 11:37:03;;;;;;;9.95;4.85;;;;;;;-17.09;69.59;100816.69;4930823;28;20051;-60
2023/01/15 11:39:35;;;;;;;7.82;4.40;;;;;;;-17.09;69.53;100806.69;4932001;27;20065;-58
2023/01/15 12:47:32;;;;;;;68.05;24.50;;;;;;;-18.38;73.58;100673.75;4589105;30;20552;-56
2023/01/15 12:53:28;;;;;;;15.85;7.20;;;;;;;-18.80;73.64;100661.09;4567230;30;20056;-58
2023/01/15 13:00:09;;;;;;;10.07;5.93;;;;;;;-18.95;73.52;100669.47;4575026;30;20064;-55
2023/01/15 13:03:08;;;;;;;5.28;4.72;;;;;;;-19.19;73.17;100668.63;4563726;30;20744;-56
2023/01/15 13:06:03;;;;;;;4.25;3.83;;;;;;;-19.43;73.50;100671.00;4566371;30;20049;-58
2023/01/15 13:54:36;;;;;;;33.55;12.95;;;;;;;-18.12;78.23;100633.13;4928530;28;20067;-57
2023/01/15 13:57:11;;;;;;;28.73;10.55;;;;;;;-18.09;78.17;100619.38;4927668;28;20078;-57
2023/01/15 13:59:51;;;;;;;27.33;10.73;;;;;;;-18.09;78.01;100624.38;4938324;27;20047;-57
2023/01/15 14:02:45;;;;;;;16.13;6.75;;;;;;;-17.95;78.26;100623.25;4932435;27;20148;-54
2023/01/15 14:05:33;;;;;;;15.57;5.88;;;;;;;-17.94;78.24;100611.66;4922920;27;20048;-57
2023/01/15 14:08:17;;;;;;;30.35;8.48;;;;;;;-17.79;78.04;100624.78;4915039;28;20089;-57
2023/01/15 14:10:54;;;;;;;18.02;7.18;;;;;;;-17.90;77.65;100616.25;4934688;27;20108;-57
2023/01/15 14:14:03;;;;;;;18.50;7.50;;;;;;;-17.93;78.06;100616.81;4923517;28;20616;-56
2023/01/15 14:16:46;;;;;;;22.38;7.68;;;;;;;-17.98;78.51;100612.09;4940731;27;20051;-57
2023/01/15 14:19:38;;;;;;;12.70;7.28;;;;;;;-17.92;78.82;100598.63;4937421;27;21146;-56
2023/01/15 14:22:34;;;;;;;12.65;6.30;;;;;;;-17.86;78.95;100598.34;4935411;27;20051;-55
2023/01/15 14:25:28;;;;;;;15.23;6.80;;;;;;;-17.75;78.94;100581.91;4924447;27;20341;-55